sensor_id;sensor_type;location;lat;lon;timestamp;pressure;altitude;pressure_sealevel;temperature;humidity
32033;BME280;31720;52.638;9.216;2023-11-22T00:02:16;102458.63;;;3.28;100.00
32033;BME280;31720;52.638;9.216;2023-11-22T00:05:18;102460.34;;;3.23;100.00
32033;BME280;31720;52.638;9.216;2023-11-22T00:08:19;102467.25;;;3.21;100.00
32033;BME280;31720;52.638;9.216;2023-11-22T00:11:21;102476.78;;;3.23;100.00
32033;BME280;31720;52.638;9.216;2023-11-22T00:14:24;102480.22;;;3.16;100.00
32033;BME280;31720;52.638;9.216;2023-11-22T00:17:26;102486.28;;;3.14;100.00
32033;BME280;31720;52.638;9.216;2023-11-22T00:20:27;102484.53;;;3.16;100.00
32033;BME280;31720;52.638;9.216;2023-11-22T00:23:29;102476.72;;;3.10;100.00
32033;BME280;31720;52.638;9.216;2023-11-22T00:26:30;102474.13;;;3.10;100.00
32033;BME280;31720;52.638;9.216;2023-11-22T00:29:33;102479.28;;;3.07;100.00
32033;BME280;31720;52.638;9.216;2023-11-22T00:32:35;102475.81;;;3.01;100.00
32033;BME280;31720;52.638;9.216;2023-11-22T00:35:36;102484.44;;;2.99;100.00
32033;BME280;31720;52.638;9.216;2023-11-22T00:38:38;102490.44;;;2.90;100.00
32033;BME280;31720;52.638;9.216;2023-11-22T00:41:39;102480.03;;;2.86;100.00
32033;BME280;31720;52.638;9.216;2023-11-22T00:44:42;102480.03;;;2.83;100.00
32033;BME280;31720;52.638;9.216;2023-11-22T00:47:44;102476.53;;;2.77;100.00
32033;BME280;31720;52.638;9.216;2023-11-22T00:50:45;102488.69;;;2.83;100.00
32033;BME280;31720;52.638;9.216;2023-11-22T00:53:46;102488.66;;;2.80;100.00
32033;BME280;31720;52.638;9.216;2023-11-22T00:56:48;102491.25;;;2.78;100.00
32033;BME280;31720;52.638;9.216;2023-11-22T00:59:51;102498.13;;;2.76;100.00
32033;BME280;31720;52.638;9.216;2023-11-22T01:02:53;102507.66;;;2.76;100.00
32033;BME280;31720;52.638;9.216;2023-11-22T01:05:55;102518.91;;;2.73;100.00
32033;BME280;31720;52.638;9.216;2023-11-22T01:08:56;102529.28;;;2.76;100.00
32033;BME280;31720;52.638;9.216;2023-11-22T01:11:58;102530.97;;;2.70;100.00
32033;BME280;31720;52.638;9.216;2023-11-22T01:15:01;102524.00;;;2.64;100.00
32033;BME280;31720;52.638;9.216;2023-11-22T01:18:02;102522.25;;;2.60;100.00
32033;BME280;31720;52.638;9.216;2023-11-22T01:21:03;102529.16;;;2.60;100.00
32033;BME280;31720;52.638;9.216;2023-11-22T01:24:05;102517.06;;;2.63;100.00
32033;BME280;31720;52.638;9.216;2023-11-22T01:27:07;102526.56;;;2.61;100.00
32033;BME280;31720;52.638;9.216;2023-11-22T01:30:10;102514.47;;;2.62;100.00
32033;BME280;31720;52.638;9.216;2023-11-22T01:33:12;102503.22;;;2.60;100.00
32033;BME280;31720;52.638;9.216;2023-11-22T01:36:14;102505.78;;;2.57;100.00
32033;BME280;31720;52.638;9.216;2023-11-22T01:39:16;102491.00;;;2.49;100.00
32033;BME280;31720;52.638;9.216;2023-11-22T01:42:17;102493.56;;;2.42;100.00
32033;BME280;31720;52.638;9.216;2023-11-22T01:45:21;102498.75;;;2.43;100.00
32033;BME280;31720;52.638;9.216;2023-11-22T01:48:23;102508.25;;;2.41;100.00
32033;BME280;31720;52.638;9.216;2023-11-22T01:51:25;102517.69;;;2.33;100.00
32033;BME280;31720;52.638;9.216;2023-11-22T01:54:27;102517.69;;;2.33;100.00
32033;BME280;31720;52.638;9.216;2023-11-22T01:57:30;102528.03;;;2.32;100.00
32033;BME280;31720;52.638;9.216;2023-11-22T02:00:42;102544.44;;;2.27;100.00
32033;BME280;31720;52.638;9.216;2023-11-22T02:03:45;102544.41;;;2.24;100.00
32033;BME280;31720;52.638;9.216;2023-11-22T02:06:47;102551.31;;;2.24;100.00
32033;BME280;31720;52.638;9.216;2023-11-22T02:09:50;102561.69;;;2.25;100.00
32033;BME280;31720;52.638;9.216;2023-11-22T02:12:53;102552.13;;;2.18;100.00
32033;BME280;31720;52.638;9.216;2023-11-22T02:15:55;102554.69;;;2.17;100.00
32033;BME280;31720;52.638;9.216;2023-11-22T02:18:59;102552.97;;;2.16;100.00
32033;BME280;31720;52.638;9.216;2023-11-22T02:22:00;102556.44;;;2.18;100.00
32033;BME280;31720;52.638;9.216;2023-11-22T02:25:04;102546.91;;;2.17;100.00
32033;BME280;31720;52.638;9.216;2023-11-22T02:28:06;102549.53;;;2.20;100.00
32033;BME280;31720;52.638;9.216;2023-11-22T02:31:08;102540.84;;;2.15;100.00
32033;BME280;31720;52.638;9.216;2023-11-22T02:34:10;102547.69;;;2.07;100.00
32033;BME280;31720;52.638;9.216;2023-11-22T02:37:11;102556.28;;;2.04;100.00
32033;BME280;31720;52.638;9.216;2023-11-22T02:40:17;102562.38;;;2.05;100.00
32033;BME280;31720;52.638;9.216;2023-11-22T02:43:19;102572.75;;;2.08;100.00
32033;BME280;31720;52.638;9.216;2023-11-22T02:46:21;102576.16;;;2.02;100.00
32033;BME280;31720;52.638;9.216;2023-11-22T02:49:23;102575.28;;;2.01;100.00
32033;BME280;31720;52.638;9.216;2023-11-22T02:52:25;102583.00;;;1.98;100.00
32033;BME280;31720;52.638;9.216;2023-11-22T02:55:28;102596.84;;;1.99;100.00
32033;BME280;31720;52.638;9.216;2023-11-22T02:58:29;102591.59;;;1.94;100.00
32033;BME280;31720;52.638;9.216;2023-11-22T03:01:31;102591.59;;;1.91;100.00
32033;BME280;31720;52.638;9.216;2023-11-22T03:04:32;102588.94;;;1.88;100.00
32033;BME280;31720;52.638;9.216;2023-11-22T03:07:34;102594.09;;;1.85;100.00
32033;BME280;31720;52.638;9.216;2023-11-22T03:10:37;102589.75;;;1.86;100.00
32033;BME280;31720;52.638;9.216;2023-11-22T03:13:38;102594.09;;;1.85;100.00
32033;BME280;31720;52.638;9.216;2023-11-22T03:16:40;102585.31;;;1.75;100.00
32033;BME280;31720;52.638;9.216;2023-11-22T03:19:42;102591.38;;;1.74;100.00
32033;BME280;31720;52.638;9.216;2023-11-22T03:22:45;102595.69;;;1.74;100.00
32033;BME280;31720;52.638;9.216;2023-11-22T03:25:52;102599.94;;;1.70;100.00
32033;BME280;31720;52.638;9.216;2023-11-22T03:28:53;102604.22;;;1.67;100.00
32033;BME280;31720;52.638;9.216;2023-11-22T03:31:54;102610.25;;;1.64;100.00
32033;BME280;31720;52.638;9.216;2023-11-22T03:34:56;102620.63;;;1.64;100.00
32033;BME280;31720;52.638;9.216;2023-11-22T03:37:58;102618.03;;;1.64;100.00
32033;BME280;31720;52.638;9.216;2023-11-22T03:41:00;102634.44;;;1.66;100.00
32033;BME280;31720;52.638;9.216;2023-11-22T03:44:02;102631.91;;;1.69;100.00
32033;BME280;31720;52.638;9.216;2023-11-22T03:47:05;102627.53;;;1.65;100.00
32033;BME280;31720;52.638;9.216;2023-11-22T03:50:07;102641.34;;;1.64;100.00
32033;BME280;31720;52.638;9.216;2023-11-22T03:53:10;102649.94;;;1.63;100.00
32033;BME280;31720;52.638;9.216;2023-11-22T03:56:12;102657.72;;;1.63;100.00
32033;BME280;31720;52.638;9.216;2023-11-22T03:59:14;102656.84;;;1.63;100.00
32033;BME280;31720;52.638;9.216;2023-11-22T04:02:15;102649.94;;;1.62;100.00
32033;BME280;31720;52.638;9.216;2023-11-22T04:05:16;102654.16;;;1.55;100.00
32033;BME280;31720;52.638;9.216;2023-11-22T04:08:20;102647.28;;;1.59;100.00
32033;BME280;31720;52.638;9.216;2023-11-22T04:11:22;102649.00;;;1.58;100.00
32033;BME280;31720;52.638;9.216;2023-11-22T04:14:24;102660.22;;;1.56;100.00
32033;BME280;31720;52.638;9.216;2023-11-22T04:17:27;102664.47;;;1.52;100.00
32033;BME280;31720;52.638;9.216;2023-11-22T04:20:28;102667.00;;;1.49;100.00
32033;BME280;31720;52.638;9.216;2023-11-22T04:23:30;102674.72;;;1.44;100.00
32033;BME280;31720;52.638;9.216;2023-11-22T04:26:33;102663.41;;;1.38;100.00
32033;BME280;31720;52.638;9.216;2023-11-22T04:29:35;102675.56;;;1.43;100.00
32033;BME280;31720;52.638;9.216;2023-11-22T04:32:37;102672.97;;;1.42;100.00
32033;BME280;31720;52.638;9.216;2023-11-22T04:35:38;102671.25;;;1.42;100.00
32033;BME280;31720;52.638;9.216;2023-11-22T04:38:42;102667.72;;;1.39;100.00
32033;BME280;31720;52.638;9.216;2023-11-22T04:41:45;102673.63;;;1.30;100.00
32033;BME280;31720;52.638;9.216;2023-11-22T04:44:46;102663.28;;;1.30;100.00
32033;BME280;31720;52.638;9.216;2023-11-22T04:47:47;102665.72;;;1.22;100.00
32033;BME280;31720;52.638;9.216;2023-11-22T04:50:49;102656.34;;;1.27;100.00
32033;BME280;31720;52.638;9.216;2023-11-22T04:53:50;102651.97;;;1.23;100.00
32033;BME280;31720;52.638;9.216;2023-11-22T04:56:53;102655.38;;;1.22;100.00
32033;BME280;31720;52.638;9.216;2023-11-22T04:59:55;102650.19;;;1.22;100.00
32033;BME280;31720;52.638;9.216;2023-11-22T05:02:57;102658.84;;;1.23;100.00
32033;BME280;31720;52.638;9.216;2023-11-22T05:05:58;102659.69;;;1.22;100.00
32033;BME280;31720;52.638;9.216;2023-11-22T05:09:00;102668.31;;;1.21;100.00
32033;BME280;31720;52.638;9.216;2023-11-22T05:12:03;102669.16;;;1.20;100.00
32033;BME280;31720;52.638;9.216;2023-11-22T05:15:05;102683.03;;;1.23;100.00
32033;BME280;31720;52.638;9.216;2023-11-22T05:18:07;102686.50;;;1.24;100.00
32033;BME280;31720;52.638;9.216;2023-11-22T05:21:08;102702.91;;;1.26;100.00
32033;BME280;31720;52.638;9.216;2023-11-22T05:24:09;102702.88;;;1.23;100.00
32033;BME280;31720;52.638;9.216;2023-11-22T05:27:12;102713.41;;;1.34;100.00
32033;BME280;31720;52.638;9.216;2023-11-22T05:30:14;102718.69;;;1.40;100.00
32033;BME280;31720;52.638;9.216;2023-11-22T05:33:17;102705.81;;;1.44;100.00
32033;BME280;31720;52.638;9.216;2023-11-22T05:36:18;102706.72;;;1.46;100.00
32033;BME280;31720;52.638;9.216;2023-11-22T05:39:20;102709.31;;;1.48;100.00
32033;BME280;31720;52.638;9.216;2023-11-22T05:42:23;102705.13;;;1.56;100.00
32033;BME280;31720;52.638;9.216;2023-11-22T05:45:26;102698.16;;;1.53;100.00
32033;BME280;31720;52.638;9.216;2023-11-22T05:48:27;102706.75;;;1.49;100.00
32033;BME280;31720;52.638;9.216;2023-11-22T05:51:29;102709.19;;;1.40;100.00
32033;BME280;31720;52.638;9.216;2023-11-22T05:54:30;102705.72;;;1.40;100.00
32033;BME280;31720;52.638;9.216;2023-11-22T05:57:33;102712.63;;;1.39;100.00
32033;BME280;31720;52.638;9.216;2023-11-22T06:00:35;102706.50;;;1.33;100.00
32033;BME280;31720;52.638;9.216;2023-11-22T06:03:38;102728.88;;;1.29;100.00
32033;BME280;31720;52.638;9.216;2023-11-22T06:06:40;102728.78;;;1.24;100.00
32033;BME280;31720;52.638;9.216;2023-11-22T06:09:41;102712.31;;;1.21;100.00
32033;BME280;31720;52.638;9.216;2023-11-22T06:12:44;102718.38;;;1.21;100.00
32033;BME280;31720;52.638;9.216;2023-11-22T06:15:45;102720.03;;;1.18;100.00
32033;BME280;31720;52.638;9.216;2023-11-22T06:18:47;102718.19;;;1.09;100.00
32033;BME280;31720;52.638;9.216;2023-11-22T06:21:48;102717.41;;;1.15;100.00
32033;BME280;31720;52.638;9.216;2023-11-22T06:24:49;102701.09;;;1.20;100.00
32033;BME280;31720;52.638;9.216;2023-11-22T06:27:52;102697.63;;;1.20;100.00
32033;BME280;31720;52.638;9.216;2023-11-22T06:30:54;102698.41;;;1.14;100.00
32033;BME280;31720;52.638;9.216;2023-11-22T06:33:55;102708.66;;;1.08;100.00
32033;BME280;31720;52.638;9.216;2023-11-22T06:36:56;102711.31;;;1.13;100.00
32033;BME280;31720;52.638;9.216;2023-11-22T06:39:58;102712.03;;;1.04;100.00
32033;BME280;31720;52.638;9.216;2023-11-22T06:43:00;102709.50;;;1.07;100.00
32033;BME280;31720;52.638;9.216;2023-11-22T06:46:05;102711.94;;;0.98;100.00
32033;BME280;31720;52.638;9.216;2023-11-22T06:49:06;102708.38;;;0.91;100.00
32033;BME280;31720;52.638;9.216;2023-11-22T06:52:08;102709.97;;;0.86;100.00
32033;BME280;31720;52.638;9.216;2023-11-22T06:55:10;102710.06;;;0.91;100.00
32033;BME280;31720;52.638;9.216;2023-11-22T06:58:12;102713.63;;;0.96;100.00
32033;BME280;31720;52.638;9.216;2023-11-22T07:01:14;102721.47;;;1.00;100.00
32033;BME280;31720;52.638;9.216;2023-11-22T07:04:16;102710.34;;;1.06;100.00
32033;BME280;31720;52.638;9.216;2023-11-22T07:07:17;102717.28;;;1.09;100.00
32033;BME280;31720;52.638;9.216;2023-11-22T07:10:19;102725.88;;;1.06;100.00
32033;BME280;31720;52.638;9.216;2023-11-22T07:13:23;102725.97;;;1.11;100.00
32033;BME280;31720;52.638;9.216;2023-11-22T07:16:26;102733.91;;;1.20;100.00
32033;BME280;31720;52.638;9.216;2023-11-22T07:19:28;102725.22;;;1.18;100.00
32033;BME280;31720;52.638;9.216;2023-11-22T07:22:30;102717.44;;;1.16;100.00
32033;BME280;31720;52.638;9.216;2023-11-22T07:25:31;102706.13;;;1.13;100.00
32033;BME280;31720;52.638;9.216;2023-11-22T07:28:35;102708.69;;;1.10;100.00
32033;BME280;31720;52.638;9.216;2023-11-22T07:31:36;102705.31;;;1.14;100.00
32033;BME280;31720;52.638;9.216;2023-11-22T07:34:39;102699.25;;;1.13;100.00
32033;BME280;31720;52.638;9.216;2023-11-22T07:37:41;102708.06;;;1.24;100.00
32033;BME280;31720;52.638;9.216;2023-11-22T07:40:43;102710.75;;;1.31;100.00
32033;BME280;31720;52.638;9.216;2023-11-22T07:43:46;102715.06;;;1.30;100.00
32033;BME280;31720;52.638;9.216;2023-11-22T07:46:48;102728.88;;;1.31;100.00
32033;BME280;31720;52.638;9.216;2023-11-22T07:49:49;102733.34;;;1.38;100.00
32033;BME280;31720;52.638;9.216;2023-11-22T07:52:51;102733.41;;;1.42;100.00
32033;BME280;31720;52.638;9.216;2023-11-22T07:55:53;102736.94;;;1.47;100.00
32033;BME280;31720;52.638;9.216;2023-11-22T07:58:55;102737.81;;;1.48;100.00
32033;BME280;31720;52.638;9.216;2023-11-22T08:01:57;102744.81;;;1.53;100.00
32033;BME280;31720;52.638;9.216;2023-11-22T08:05:01;102753.44;;;1.54;100.00
32033;BME280;31720;52.638;9.216;2023-11-22T08:08:04;102759.53;;;1.56;100.00
32033;BME280;31720;52.638;9.216;2023-11-22T08:11:08;102764.84;;;1.64;100.00
32033;BME280;31720;52.638;9.216;2023-11-22T08:14:16;102768.34;;;1.67;100.00
32033;BME280;31720;52.638;9.216;2023-11-22T08:17:18;102762.28;;;1.64;100.00
32033;BME280;31720;52.638;9.216;2023-11-22T08:20:19;102768.47;;;1.73;100.00
32033;BME280;31720;52.638;9.216;2023-11-22T08:23:21;102760.78;;;1.81;100.00
32033;BME280;31720;52.638;9.216;2023-11-22T08:26:23;102769.44;;;1.82;100.00
32033;BME280;31720;52.638;9.216;2023-11-22T08:29:27;102771.22;;;1.84;100.00
32033;BME280;31720;52.638;9.216;2023-11-22T08:32:28;102781.59;;;1.86;100.00
32033;BME280;31720;52.638;9.216;2023-11-22T08:35:31;102780.84;;;1.93;100.00
32033;BME280;31720;52.638;9.216;2023-11-22T08:38:32;102769.50;;;1.86;100.00
32033;BME280;31720;52.638;9.216;2023-11-22T08:41:34;102772.91;;;1.82;100.00
32033;BME280;31720;52.638;9.216;2023-11-22T08:44:37;102778.13;;;1.85;100.00
32033;BME280;31720;52.638;9.216;2023-11-22T08:47:39;102776.41;;;1.86;100.00
32033;BME280;31720;52.638;9.216;2023-11-22T08:50:41;102789.50;;;1.93;100.00
32033;BME280;31720;52.638;9.216;2023-11-22T08:53:44;102793.91;;;1.99;100.00
32033;BME280;31720;52.638;9.216;2023-11-22T08:56:45;102775.75;;;1.97;100.00
32033;BME280;31720;52.638;9.216;2023-11-22T08:59:48;102791.31;;;1.99;100.00
32033;BME280;31720;52.638;9.216;2023-11-22T09:02:50;102792.97;;;1.94;100.00
32033;BME280;31720;52.638;9.216;2023-11-22T09:05:51;102789.50;;;1.95;100.00
32033;BME280;31720;52.638;9.216;2023-11-22T09:08:54;102790.50;;;2.03;100.00
32033;BME280;31720;52.638;9.216;2023-11-22T09:11:55;102798.34;;;2.08;100.00
32033;BME280;31720;52.638;9.216;2023-11-22T09:14:58;102783.72;;;2.13;100.00
32033;BME280;31720;52.638;9.216;2023-11-22T09:17:59;102776.88;;;2.18;100.00
32033;BME280;31720;52.638;9.216;2023-11-22T09:21:01;102780.44;;;2.23;100.00
32033;BME280;31720;52.638;9.216;2023-11-22T09:24:03;102786.56;;;2.28;100.00
32033;BME280;31720;52.638;9.216;2023-11-22T09:27:06;102777.81;;;2.21;100.00
32033;BME280;31720;52.638;9.216;2023-11-22T09:30:12;102769.09;;;2.18;100.00
32033;BME280;31720;52.638;9.216;2023-11-22T09:33:18;102776.91;;;2.19;100.00
32033;BME280;31720;52.638;9.216;2023-11-22T09:36:19;102770.88;;;2.20;100.00
32033;BME280;31720;52.638;9.216;2023-11-22T09:39:22;102767.56;;;2.31;100.00
32033;BME280;31720;52.638;9.216;2023-11-22T09:42:24;102773.66;;;2.36;100.00
32033;BME280;31720;52.638;9.216;2023-11-22T09:45:29;102770.22;;;2.35;100.00
32033;BME280;31720;52.638;9.216;2023-11-22T09:48:31;102778.91;;;2.40;100.00
32033;BME280;31720;52.638;9.216;2023-11-22T09:51:32;102780.75;;;2.47;100.00
32033;BME280;31720;52.638;9.216;2023-11-22T09:54:37;102777.41;;;2.54;100.00
32033;BME280;31720;52.638;9.216;2023-11-22T09:57:40;102774.81;;;2.54;100.00
32033;BME280;31720;52.638;9.216;2023-11-22T10:00:43;102793.97;;;2.66;100.00
32033;BME280;31720;52.638;9.216;2023-11-22T10:03:45;102789.75;;;2.74;100.00
32033;BME280;31720;52.638;9.216;2023-11-22T10:06:47;102794.91;;;2.72;100.00
32033;BME280;31720;52.638;9.216;2023-11-22T10:09:50;102802.78;;;2.78;100.00
32033;BME280;31720;52.638;9.216;2023-11-22T10:12:53;102802.78;;;2.82;100.00
32033;BME280;31720;52.638;9.216;2023-11-22T10:16:09;102800.25;;;2.85;100.00
32033;BME280;31720;52.638;9.216;2023-11-22T10:19:10;102805.44;;;2.83;100.00
32033;BME280;31720;52.638;9.216;2023-11-22T10:22:14;102802.06;;;2.92;100.00
32033;BME280;31720;52.638;9.216;2023-11-22T10:25:17;102806.47;;;2.99;100.00
32033;BME280;31720;52.638;9.216;2023-11-22T10:28:20;102792.66;;;3.00;100.00
32033;BME280;31720;52.638;9.216;2023-11-22T10:31:24;102808.19;;;2.95;100.00
32033;BME280;31720;52.638;9.216;2023-11-22T10:34:26;102796.97;;;3.01;100.00
32033;BME280;31720;52.638;9.216;2023-11-22T10:37:28;102797.88;;;3.04;100.00
32033;BME280;31720;52.638;9.216;2023-11-22T10:40:29;102807.38;;;3.02;100.00
32033;BME280;31720;52.638;9.216;2023-11-22T10:43:31;102814.38;;;3.10;100.00
32033;BME280;31720;52.638;9.216;2023-11-22T10:46:37;102804.91;;;3.15;100.00
32033;BME280;31720;52.638;9.216;2023-11-22T10:49:40;102796.22;;;3.13;100.00
32033;BME280;31720;52.638;9.216;2023-11-22T10:52:44;102772.88;;;3.17;100.00
32033;BME280;31720;52.638;9.216;2023-11-22T10:55:48;102761.63;;;3.17;100.00
32033;BME280;31720;52.638;9.216;2023-11-22T10:58:50;102753.84;;;3.15;100.00
32033;BME280;31720;52.638;9.216;2023-11-22T11:01:55;102764.31;;;3.23;100.00
32033;BME280;31720;52.638;9.216;2023-11-22T11:04:59;102769.47;;;3.18;100.00
32033;BME280;31720;52.638;9.216;2023-11-22T11:08:08;102735.72;;;3.23;100.00
32033;BME280;31720;52.638;9.216;2023-11-22T11:11:11;102744.44;;;3.29;100.00
32033;BME280;31720;52.638;9.216;2023-11-22T11:14:15;102737.50;;;3.30;100.00
32033;BME280;31720;52.638;9.216;2023-11-22T11:17:19;102730.69;;;3.43;100.00
32033;BME280;31720;52.638;9.216;2023-11-22T11:20:22;102709.00;;;3.39;100.00
32033;BME280;31720;52.638;9.216;2023-11-22T11:23:25;102722.06;;;3.45;100.00
32033;BME280;31720;52.638;9.216;2023-11-22T11:26:27;102697.78;;;3.43;100.00
32033;BME280;31720;52.638;9.216;2023-11-22T11:29:29;102715.09;;;3.44;100.00
32033;BME280;31720;52.638;9.216;2023-11-22T11:32:32;102701.28;;;3.47;100.00
32033;BME280;31720;52.638;9.216;2023-11-22T11:35:38;102681.34;;;3.49;100.00
32033;BME280;31720;52.638;9.216;2023-11-22T11:38:40;102670.13;;;3.51;100.00
32033;BME280;31720;52.638;9.216;2023-11-22T11:41:42;102656.28;;;3.59;100.00
32033;BME280;31720;52.638;9.216;2023-11-22T11:45:03;102650.34;;;3.81;100.00
32033;BME280;31720;52.638;9.216;2023-11-22T11:48:08;102626.06;;;3.76;100.00
32033;BME280;31720;52.638;9.216;2023-11-22T11:51:09;102612.13;;;3.62;100.00
32033;BME280;31720;52.638;9.216;2023-11-22T11:54:12;102590.44;;;3.63;100.00
32033;BME280;31720;52.638;9.216;2023-11-22T11:57:14;102586.13;;;3.68;100.00
32033;BME280;31720;52.638;9.216;2023-11-22T12:00:15;102580.94;;;3.68;100.00
32033;BME280;31720;52.638;9.216;2023-11-22T12:03:18;102580.06;;;3.67;100.00
32033;BME280;31720;52.638;9.216;2023-11-22T12:06:21;102549.81;;;3.81;100.00
32033;BME280;31720;52.638;9.216;2023-11-22T12:09:23;102548.09;;;3.82;100.00
32033;BME280;31720;52.638;9.216;2023-11-22T12:12:25;102541.19;;;3.92;100.00
32033;BME280;31720;52.638;9.216;2023-11-22T12:15:27;102535.09;;;3.87;100.00
32033;BME280;31720;52.638;9.216;2023-11-22T12:18:39;102535.09;;;3.82;100.00
32033;BME280;31720;52.638;9.216;2023-11-22T12:21:40;102524.66;;;3.74;100.00
32033;BME280;31720;52.638;9.216;2023-11-22T12:24:42;102524.66;;;3.77;100.00
32033;BME280;31720;52.638;9.216;2023-11-22T12:27:44;102516.00;;;3.83;100.00
32033;BME280;31720;52.638;9.216;2023-11-22T12:30:46;102515.16;;;3.89;100.00
32033;BME280;31720;52.638;9.216;2023-11-22T12:33:49;102496.06;;;3.85;100.00
32033;BME280;31720;52.638;9.216;2023-11-22T12:36:51;102507.34;;;3.86;100.00
32033;BME280;31720;52.638;9.216;2023-11-22T12:39:52;102516.91;;;3.88;100.00
32033;BME280;31720;52.638;9.216;2023-11-22T12:42:54;102532.47;;;3.85;100.00
32033;BME280;31720;52.638;9.216;2023-11-22T12:45:58;102545.53;;;3.99;100.00
32033;BME280;31720;52.638;9.216;2023-11-22T12:49:06;102545.50;;;3.88;100.00
32033;BME280;31720;52.638;9.216;2023-11-22T12:52:07;102545.53;;;3.91;100.00
32033;BME280;31720;52.638;9.216;2023-11-22T12:55:09;102542.00;;;3.78;100.00
32033;BME280;31720;52.638;9.216;2023-11-22T12:58:11;102537.69;;;3.85;100.00
32033;BME280;31720;52.638;9.216;2023-11-22T13:01:12;102542.06;;;3.92;100.00
32033;BME280;31720;52.638;9.216;2023-11-22T13:04:15;102540.34;;;4.02;100.00
32033;BME280;31720;52.638;9.216;2023-11-22T13:07:17;102523.81;;;3.88;100.00
32033;BME280;31720;52.638;9.216;2023-11-22T13:10:20;102528.16;;;3.93;100.00
32033;BME280;31720;52.638;9.216;2023-11-22T13:13:25;102521.22;;;3.88;100.00
32033;BME280;31720;52.638;9.216;2023-11-22T13:16:28;102522.94;;;3.78;100.00
32033;BME280;31720;52.638;9.216;2023-11-22T13:19:30;102529.81;;;3.67;100.00
32033;BME280;31720;52.638;9.216;2023-11-22T13:22:32;102536.75;;;3.65;100.00
32033;BME280;31720;52.638;9.216;2023-11-22T13:25:33;102534.13;;;3.63;100.00
32033;BME280;31720;52.638;9.216;2023-11-22T13:28:35;102533.28;;;3.72;100.00
32033;BME280;31720;52.638;9.216;2023-11-22T13:31:36;102548.91;;;3.70;100.00
32033;BME280;31720;52.638;9.216;2023-11-22T13:34:39;102561.88;;;3.66;100.00
32033;BME280;31720;52.638;9.216;2023-11-22T13:37:41;102556.66;;;3.63;100.00
32033;BME280;31720;52.638;9.216;2023-11-22T13:40:43;102566.19;;;3.62;100.00
32033;BME280;31720;52.638;9.216;2023-11-22T13:43:46;102559.25;;;3.63;100.00
32033;BME280;31720;52.638;9.216;2023-11-22T13:46:48;102562.72;;;3.60;100.00
32033;BME280;31720;52.638;9.216;2023-11-22T13:49:51;102566.22;;;3.68;100.00
32033;BME280;31720;52.638;9.216;2023-11-22T13:52:54;102580.97;;;3.71;100.00
32033;BME280;31720;52.638;9.216;2023-11-22T13:55:56;102579.16;;;3.58;100.00
32033;BME280;31720;52.638;9.216;2023-11-22T13:58:58;102563.56;;;3.56;100.00
32033;BME280;31720;52.638;9.216;2023-11-22T14:02:00;102562.69;;;3.59;100.00
32033;BME280;31720;52.638;9.216;2023-11-22T14:05:03;102563.56;;;3.56;100.00
32033;BME280;31720;52.638;9.216;2023-11-22T14:08:07;102559.22;;;3.50;100.00
32033;BME280;31720;52.638;9.216;2023-11-22T14:11:09;102569.59;;;3.53;100.00
32033;BME280;31720;52.638;9.216;2023-11-22T14:14:10;102566.16;;;3.58;100.00
32033;BME280;31720;52.638;9.216;2023-11-22T14:17:12;102561.00;;;3.59;100.00
32033;BME280;31720;52.638;9.216;2023-11-22T14:20:15;102545.38;;;3.58;100.00
32033;BME280;31720;52.638;9.216;2023-11-22T14:23:17;102536.72;;;3.55;100.00
32033;BME280;31720;52.638;9.216;2023-11-22T14:26:18;102532.34;;;3.53;100.00
32033;BME280;31720;52.638;9.216;2023-11-22T14:29:20;102523.66;;;3.49;100.00
32033;BME280;31720;52.638;9.216;2023-11-22T14:32:22;102517.59;;;3.49;100.00
32033;BME280;31720;52.638;9.216;2023-11-22T14:35:25;102515.03;;;3.53;100.00
32033;BME280;31720;52.638;9.216;2023-11-22T14:38:27;102515.03;;;3.53;100.00
32033;BME280;31720;52.638;9.216;2023-11-22T14:41:29;102499.44;;;3.50;100.00
32033;BME280;31720;52.638;9.216;2023-11-22T14:44:30;102499.41;;;3.49;100.00
32033;BME280;31720;52.638;9.216;2023-11-22T14:47:32;102504.63;;;3.52;100.00
32033;BME280;31720;52.638;9.216;2023-11-22T14:50:37;102490.78;;;3.51;100.00
32033;BME280;31720;52.638;9.216;2023-11-22T14:53:41;102494.22;;;3.49;100.00
32033;BME280;31720;52.638;9.216;2023-11-22T14:56:42;102495.94;;;3.48;100.00
32033;BME280;31720;52.638;9.216;2023-11-22T14:59:45;102493.34;;;3.42;100.00
32033;BME280;31720;52.638;9.216;2023-11-22T15:02:47;102495.03;;;3.39;100.00
32033;BME280;31720;52.638;9.216;2023-11-22T15:05:53;102499.41;;;3.41;100.00
32033;BME280;31720;52.638;9.216;2023-11-22T15:08:55;102498.53;;;3.42;100.00
32033;BME280;31720;52.638;9.216;2023-11-22T15:11:59;102494.19;;;3.44;100.00
32033;BME280;31720;52.638;9.216;2023-11-22T15:15:03;102493.31;;;3.36;100.00
32033;BME280;31720;52.638;9.216;2023-11-22T15:18:04;102495.94;;;3.41;100.00
32033;BME280;31720;52.638;9.216;2023-11-22T15:21:07;102471.66;;;3.43;100.00
32033;BME280;31720;52.638;9.216;2023-11-22T15:24:09;102463.00;;;3.43;100.00
32033;BME280;31720;52.638;9.216;2023-11-22T15:27:10;102447.41;;;3.38;100.00
32033;BME280;31720;52.638;9.216;2023-11-22T15:30:12;102450.03;;;3.41;100.00
32033;BME280;31720;52.638;9.216;2023-11-22T15:33:14;102457.78;;;3.38;100.00
32033;BME280;31720;52.638;9.216;2023-11-22T15:36:17;102463.81;;;3.23;100.00
32033;BME280;31720;52.638;9.216;2023-11-22T15:39:18;102464.66;;;3.25;100.00
32033;BME280;31720;52.638;9.216;2023-11-22T15:42:22;102458.63;;;3.29;100.00
32033;BME280;31720;52.638;9.216;2023-11-22T15:45:23;102443.91;;;3.28;100.00
32033;BME280;31720;52.638;9.216;2023-11-22T15:48:25;102455.16;;;3.29;100.00
32033;BME280;31720;52.638;9.216;2023-11-22T15:51:28;102438.69;;;3.25;100.00
32033;BME280;31720;52.638;9.216;2023-11-22T15:54:29;102426.53;;;3.21;100.00